Warning: Javascript must be enabled to use all the features on this page!


Page Loading - Please Wait...

Click to hideNews Bulletins

Peak Streamflow for the Nation

USGS 11012500 CAMPO C NR CAMPO CA

San Diego County, California
Hydrologic Unit Code 18070305
Latitude  32°35'28", Longitude 116°31'29" NAD27
Drainage area 85.0  square miles
Gage datum 2,179.08 feet above NGVD29
Output formats
Table
Graph
Tab-separated file
peakfq (watstore) format
Reselect output format
Water
Year
Date Gage
Height
(feet)
Stream-
flow
(cfs)
1937 1937-02-06 3.80 880
1938 1938-03-03 2.73 378
1939 1939-02-04 1.33 66.0
1940 1940-04-01 1.39 70.0
1941 1940-12-24 3.30 605
1942 1942-03-14 1.65 96.0
1943 1943-01-27 2.82 428
1944 1944-02-23 2.40 270
1945 1944-11-12 1.80 133
1946 1945-12-22 2.27 235
1947 1946-11-23 1.04 26.0
1948 1947-12-01 0.27 0.80
1949 1949-02-28 0.60 5.20
1950 1950-03-25 0.44 1.50
1951 1951-04-29 0.52 2.70
1952 1952-03-11 3.32 6233
1953 1953-03-02 0.69 7.00
1954 1954-03-25 0.93 18.0
1955 1955-07-19 2.936 137
1956 1956-04-13 1.42 1.80
1957 1957   0.00Bm
1958 1958-04-04 3.70 367
1959 1959-02-16 1.13 0.30
1960 1960-04-27 1.17 0.40
1961 1961   0.00Bm
1962 1962   0.00Bm
1963 1963   0.00Bm
1964 1964-01-22 1.13 0.00
1965 1965-02-06 1.22 1.00
1966 1965-11-22 1.31 1.00
1967 1967-09-29 1.20 1.00
1968 1967-11-19 1.21 1.00
1969 1969-02-26 1.78 10.0
1970 1970-03-05 1.33 1.00
1971 1971-08-10 1.82 12.0
1972 1971-10-09 1.21 0.56
1973 1972-11-11 1.45 2.00
1974 1974-07-19 1.78 9.90
1975 1975-03-11 1.41 1.70
1976 1976-09-10 1.71 7.40
1977 1977-01-03 1.27 0.66
1978 1978-03-02 2.42 74.0
1979 1979-03-28 2.34 59.0
1980 1980-02-20 4.36 652
1981 1981-02-09 4.31 135
1982 1982-03-18 2.69 114
1983 1983-03-24 5.39 895
1984 1984-08-20 5.70 76.0
1985 1985-02-04 4.45 29.0
1986 1986-02-15 4.01 827
1987 1987-01-05 2.05 27.0
1988 1988-01-18 3.24 389
1989 1989-03-26 1.65 3.20
1990 1990-01-14 1.47 0.92
1991 1991-03-27 3.50 521
1992 1992-08-03 2.01 24.0
1993 1993-01-16 6.86 1,580
1994 1994-01-25 5.75 96.0
1995 1995-03-05 6.85 722
1996 1996-03-13 2.472 131
1997 1997-01-13 2.32 88.0
1998 1998-02-15 4.02 652
1999 1999-04-02 2.06 20.0
2000 2000-02-22 2.12 31.0
2001 2001-03-10 1.72 4.50
2002 2002-03-18 1.39 0.70
2003 2003-07-30 1.98 21.0
2004 2004-02-22 1.29 0.47
2005 2005-02-23 2.43 119
2006 2006-03-11 1.73 3.70
2007 2006-10-23 1.43 0.75
2008 2008-01-27 1.73 3.00
2009 2008-12-17 1.90 14.0
2010 2010-01-21 1.77 6.00
2011 2011-02-26 2.48 134
2012 2012-08-30 1.80 5.60
2013 2013-01-25 1.39 0.59
2014 2014-08-03 2.05 26.0
2015 2014-12-05 2.05 26.0
2016 2016-04-11 1.66 2.20
2017 2017-02-28 3.30 429
2018 2018-07-11 2.02 23.6
2019 2019-02-14 2.79 230
2020 2020-04-11 2.48 67.3
2021 2021-03-03 1.55 0.59
?
  Peak Gage-Height Qualification Codes.
?
  Peak Streamflow Qualification Codes.